createdAt,value
2022-09-23T00:00:36.937Z,6.55
2022-09-23T00:01:37.011Z,6.51
2022-09-23T00:02:36.879Z,6.49
2022-09-23T00:03:36.827Z,6.48
2022-09-23T00:04:36.815Z,6.46
2022-09-23T00:05:37.183Z,6.44
2022-09-23T00:06:36.802Z,6.41
2022-09-23T00:07:36.812Z,6.34
2022-09-23T00:08:36.783Z,6.33
2022-09-23T00:09:36.766Z,6.28
2022-09-23T00:10:36.753Z,6.27
2022-09-23T00:11:36.746Z,6.25
2022-09-23T00:12:36.744Z,6.27
2022-09-23T00:13:36.733Z,6.37
2022-09-23T00:14:36.729Z,6.49
2022-09-23T00:15:36.727Z,6.58
2022-09-23T00:16:36.776Z,6.62
2022-09-23T00:17:36.695Z,6.67
2022-09-23T00:18:36.669Z,6.69
2022-09-23T00:19:36.666Z,6.69
2022-09-23T00:20:36.646Z,6.67
2022-09-23T00:21:36.634Z,6.62
2022-09-23T00:22:36.628Z,6.66
2022-09-23T00:23:36.623Z,6.69
2022-09-23T00:24:36.605Z,6.73
2022-09-23T00:25:36.607Z,6.74
2022-09-23T00:26:36.584Z,6.70
2022-09-23T00:27:36.569Z,6.69
2022-09-23T00:28:36.560Z,6.66
2022-09-23T00:29:36.550Z,6.61
2022-09-23T00:30:36.582Z,6.56
2022-09-23T00:31:36.544Z,6.54
2022-09-23T00:32:36.521Z,6.48
2022-09-23T00:33:36.513Z,6.48
2022-09-23T00:34:36.515Z,6.46
2022-09-23T00:35:36.493Z,6.43
2022-09-23T00:36:36.525Z,6.38
2022-09-23T00:37:36.460Z,6.37
2022-09-23T00:38:36.453Z,6.38
2022-09-23T00:39:36.447Z,6.38
2022-09-23T00:40:36.499Z,6.38
2022-09-23T00:41:36.428Z,6.37
2022-09-23T00:42:36.402Z,6.36
2022-09-23T00:43:36.417Z,6.34
2022-09-23T00:44:36.403Z,6.30
2022-09-23T00:45:36.421Z,6.25
2022-09-23T00:46:36.376Z,6.22
2022-09-23T00:47:36.369Z,6.17
2022-09-23T00:48:36.353Z,6.17
2022-09-23T00:49:36.342Z,6.15
2022-09-23T00:50:36.331Z,6.15
2022-09-23T00:51:36.369Z,6.18
2022-09-23T00:52:36.303Z,6.17
2022-09-23T00:53:36.305Z,6.18
2022-09-23T00:54:36.278Z,6.18
2022-09-23T00:55:36.275Z,6.19
2022-09-23T00:56:36.266Z,6.18
2022-09-23T00:57:36.253Z,6.14
2022-09-23T00:58:36.228Z,6.14
2022-09-23T00:59:36.237Z,6.12
2022-09-23T01:00:36.236Z,6.12
2022-09-23T01:01:36.340Z,6.12
2022-09-23T01:02:36.211Z,6.11
2022-09-23T01:03:36.184Z,6.12
2022-09-23T01:04:36.181Z,6.14
2022-09-23T01:05:36.171Z,6.11
2022-09-23T01:06:36.163Z,6.09
2022-09-23T01:07:36.360Z,6.06
2022-09-23T01:08:36.133Z,6.03
2022-09-23T01:09:36.126Z,6.01
2022-09-23T01:10:36.106Z,5.99
2022-09-23T01:11:36.127Z,5.93
2022-09-23T01:12:36.093Z,5.91
2022-09-23T01:13:36.081Z,5.91
2022-09-23T01:14:36.072Z,5.91
2022-09-23T01:15:36.058Z,5.93
2022-09-23T01:16:36.076Z,5.89
2022-09-23T01:17:36.332Z,5.85
2022-09-23T01:18:36.030Z,5.83
2022-09-23T01:19:36.026Z,5.82
2022-09-23T01:20:35.999Z,5.79
2022-09-23T01:21:35.989Z,5.79
2022-09-23T01:22:35.975Z,5.78
2022-09-23T01:23:35.976Z,5.78
2022-09-23T01:24:35.957Z,5.78
2022-09-23T01:25:35.949Z,5.82
2022-09-23T01:26:35.939Z,5.85
2022-09-23T01:27:35.926Z,5.83
2022-09-23T01:28:35.917Z,5.85
2022-09-23T01:29:35.908Z,5.83
2022-09-23T01:30:35.942Z,5.79
2022-09-23T01:31:35.891Z,5.78
2022-09-23T01:32:35.870Z,5.76
2022-09-23T01:33:35.861Z,5.72
2022-09-23T01:34:35.847Z,5.74
2022-09-23T01:35:35.839Z,5.72
2022-09-23T01:36:35.837Z,5.71
2022-09-23T01:37:35.821Z,5.71
2022-09-23T01:38:35.812Z,5.68
2022-09-23T01:39:35.810Z,5.67
2022-09-23T01:40:35.892Z,5.67
2022-09-23T01:41:35.786Z,5.67
2022-09-23T01:42:35.768Z,5.64
2022-09-23T01:43:35.769Z,5.63
2022-09-23T01:44:35.759Z,5.60
2022-09-23T01:45:35.740Z,5.61
2022-09-23T01:46:35.726Z,5.58
2022-09-23T01:47:35.722Z,5.58
2022-09-23T01:48:35.799Z,5.60
2022-09-23T01:49:35.693Z,5.64
2022-09-23T01:50:35.706Z,5.65
2022-09-23T01:51:35.687Z,5.60
2022-09-23T01:52:35.648Z,5.61
2022-09-23T01:53:35.649Z,5.57
2022-09-23T01:54:35.640Z,5.58
2022-09-23T01:55:35.637Z,5.57
2022-09-23T01:56:35.607Z,5.56
2022-09-23T01:57:35.603Z,5.51
2022-09-23T01:58:35.590Z,5.51
2022-09-23T01:59:35.577Z,5.51
2022-09-23T02:00:35.578Z,5.51
2022-09-23T02:01:35.632Z,5.49
2022-09-23T02:02:35.584Z,5.53
2022-09-23T02:03:35.535Z,5.56
2022-09-23T02:04:35.531Z,5.58
2022-09-23T02:05:35.518Z,5.58
2022-09-23T02:06:35.514Z,5.60
2022-09-23T02:07:35.512Z,5.61
2022-09-23T02:08:36.547Z,5.58
2022-09-23T02:09:35.477Z,5.57
2022-09-23T02:10:35.468Z,5.54
2022-09-23T02:11:35.464Z,5.51
2022-09-23T02:12:35.440Z,5.49
2022-09-23T02:13:35.436Z,5.49
2022-09-23T02:14:35.437Z,5.53
2022-09-23T02:15:35.429Z,5.61
2022-09-23T02:16:35.424Z,5.68
2022-09-23T02:17:35.386Z,5.72
2022-09-23T02:18:35.376Z,5.71
2022-09-23T02:19:35.376Z,5.68
2022-09-23T02:20:35.368Z,5.67
2022-09-23T02:21:35.335Z,5.67
2022-09-23T02:22:35.513Z,5.63
2022-09-23T02:23:35.331Z,5.58
2022-09-23T02:24:35.319Z,5.57
2022-09-23T02:25:35.308Z,5.54
2022-09-23T02:26:35.305Z,5.49
2022-09-23T02:27:35.296Z,5.48
2022-09-23T02:28:35.273Z,5.43
2022-09-23T02:29:35.265Z,5.42
2022-09-23T02:30:35.255Z,5.42
2022-09-23T02:31:35.312Z,5.39
2022-09-23T02:32:35.232Z,5.40
2022-09-23T02:33:35.228Z,5.36
2022-09-23T02:34:35.204Z,5.38
2022-09-23T02:35:35.224Z,5.35
2022-09-23T02:36:35.187Z,5.30
2022-09-23T02:37:35.189Z,5.30
2022-09-23T02:38:35.163Z,5.30
2022-09-23T02:39:35.201Z,5.33
2022-09-23T02:40:35.235Z,5.31
2022-09-23T02:41:35.143Z,5.31
2022-09-23T02:42:35.123Z,5.33
2022-09-23T02:43:35.119Z,5.31
2022-09-23T02:44:35.109Z,5.33
2022-09-23T02:45:35.129Z,5.31
2022-09-23T02:46:35.082Z,5.33
2022-09-23T02:47:35.074Z,5.35
2022-09-23T02:48:35.065Z,5.35
2022-09-23T02:49:35.056Z,5.33
2022-09-23T02:50:35.052Z,5.35
2022-09-23T02:51:35.028Z,5.36
2022-09-23T02:52:35.025Z,5.40
2022-09-23T02:53:35.034Z,5.43
2022-09-23T02:54:35.012Z,5.45
2022-09-23T02:55:34.994Z,5.43
2022-09-23T02:56:35.029Z,5.43
2022-09-23T02:57:34.965Z,5.43
2022-09-23T02:58:34.961Z,5.40
2022-09-23T02:59:34.947Z,5.40
2022-09-23T03:00:34.933Z,5.42
2022-09-23T03:01:34.973Z,5.40
2022-09-23T03:02:34.938Z,5.40
2022-09-23T03:03:34.901Z,5.40
2022-09-23T03:04:34.887Z,5.42
2022-09-23T03:05:34.984Z,5.40
2022-09-23T03:06:34.864Z,5.46
2022-09-23T03:07:34.855Z,5.48
2022-09-23T03:08:34.852Z,5.51
2022-09-23T03:09:34.839Z,5.53
2022-09-23T03:10:35.010Z,5.53
2022-09-23T03:11:34.821Z,5.54
2022-09-23T03:12:34.801Z,5.56
2022-09-23T03:13:34.802Z,5.56
2022-09-23T03:14:34.783Z,5.58
2022-09-23T03:15:34.786Z,5.57
2022-09-23T03:16:34.804Z,5.57
2022-09-23T03:17:34.756Z,5.57
2022-09-23T03:18:34.760Z,5.56
2022-09-23T03:19:34.736Z,5.58
2022-09-23T03:20:34.716Z,5.57
2022-09-23T03:21:34.716Z,5.56
2022-09-23T03:22:34.704Z,5.54
2022-09-23T03:23:34.699Z,5.54
2022-09-23T03:24:34.674Z,5.54
2022-09-23T03:25:34.672Z,5.49
2022-09-23T03:26:34.659Z,5.51
2022-09-23T03:27:34.652Z,5.48
2022-09-23T03:28:34.639Z,5.48
2022-09-23T03:29:34.621Z,5.46
2022-09-23T03:30:34.728Z,5.43
2022-09-23T03:31:34.650Z,5.43
2022-09-23T03:32:34.578Z,5.42
2022-09-23T03:33:34.579Z,5.40
2022-09-23T03:34:34.959Z,5.39
2022-09-23T03:35:34.561Z,5.39
2022-09-23T03:36:34.558Z,5.42
2022-09-23T03:37:34.564Z,5.45
2022-09-23T03:38:34.525Z,5.43
2022-09-23T03:39:34.526Z,5.43
2022-09-23T03:40:34.596Z,5.46
2022-09-23T03:41:34.534Z,5.43
2022-09-23T03:42:34.480Z,5.43
2022-09-23T03:43:38.664Z,5.43
2022-09-23T03:44:34.462Z,5.43
2022-09-23T03:45:34.529Z,5.45
2022-09-23T03:46:34.444Z,5.46
2022-09-23T03:47:34.435Z,5.53
2022-09-23T03:48:34.432Z,5.51
2022-09-23T03:49:34.422Z,5.53
2022-09-23T03:50:34.403Z,5.51
2022-09-23T03:51:34.380Z,5.48
2022-09-23T03:52:34.378Z,5.49
2022-09-23T03:53:34.377Z,5.49
2022-09-23T03:54:34.363Z,5.56
2022-09-23T03:55:34.359Z,5.54
2022-09-23T03:56:34.335Z,5.54
2022-09-23T03:57:34.331Z,5.51
2022-09-23T03:58:34.312Z,5.51
2022-09-23T03:59:34.304Z,5.48
2022-09-23T04:00:34.339Z,5.46
2022-09-23T04:01:34.281Z,5.42
2022-09-23T04:02:34.321Z,5.43
2022-09-23T04:03:34.260Z,5.43
2022-09-23T04:04:34.250Z,5.45
2022-09-23T04:05:34.241Z,5.48
2022-09-23T04:06:34.237Z,5.48
2022-09-23T04:07:34.216Z,5.49
2022-09-23T04:08:34.211Z,5.49
2022-09-23T04:09:34.194Z,5.51
2022-09-23T04:10:34.206Z,5.49
2022-09-23T04:11:34.179Z,5.51
2022-09-23T04:12:34.361Z,5.49
2022-09-23T04:13:34.157Z,5.49
2022-09-23T04:14:34.150Z,5.46
2022-09-23T04:15:34.121Z,5.42
2022-09-23T04:16:34.143Z,5.42
2022-09-23T04:17:34.098Z,5.39
2022-09-23T04:18:34.100Z,5.38
2022-09-23T04:19:34.081Z,5.38
2022-09-23T04:20:34.098Z,5.38
2022-09-23T04:21:34.060Z,5.40
2022-09-23T04:22:34.068Z,5.39
2022-09-23T04:23:34.039Z,5.39
2022-09-23T04:24:34.032Z,5.40
2022-09-23T04:25:34.012Z,5.39
2022-09-23T04:26:34.018Z,5.39
2022-09-23T04:27:37.629Z,5.39
2022-09-23T04:28:33.995Z,5.38
2022-09-23T04:29:33.966Z,5.36
2022-09-23T04:30:33.967Z,5.36
2022-09-23T04:31:34.007Z,5.35
2022-09-23T04:32:33.945Z,5.35
2022-09-23T04:33:33.927Z,5.31
2022-09-23T04:34:33.927Z,5.28
2022-09-23T04:35:36.690Z,5.25
2022-09-23T04:36:35.361Z,5.21
2022-09-23T04:37:33.901Z,5.21
2022-09-23T04:38:33.887Z,5.15
2022-09-23T04:39:33.873Z,5.15
2022-09-23T04:40:34.034Z,5.12
2022-09-23T04:41:33.853Z,5.09
2022-09-23T04:42:33.856Z,5.10
2022-09-23T04:43:33.828Z,5.13
2022-09-23T04:44:33.819Z,5.22
2022-09-23T04:45:33.991Z,5.25
2022-09-23T04:46:33.843Z,5.24
2022-09-23T04:47:33.786Z,5.24
2022-09-23T04:48:33.773Z,5.22
2022-09-23T04:49:33.776Z,5.24
2022-09-23T04:50:33.817Z,5.25
2022-09-23T04:51:33.747Z,5.27
2022-09-23T04:52:33.747Z,5.35
2022-09-23T04:53:33.713Z,5.43
2022-09-23T04:54:33.710Z,5.48
2022-09-23T04:55:33.703Z,5.51
2022-09-23T04:56:33.701Z,5.51
2022-09-23T04:57:33.677Z,5.49
2022-09-23T04:58:33.686Z,5.46
2022-09-23T04:59:33.659Z,5.43
2022-09-23T05:00:33.676Z,5.38
2022-09-23T05:01:33.804Z,5.35
2022-09-23T05:02:33.673Z,5.33
2022-09-23T05:03:33.625Z,5.30
2022-09-23T05:04:33.610Z,5.30
2022-09-23T05:05:33.596Z,5.25
2022-09-23T05:06:33.598Z,5.25
2022-09-23T05:07:33.590Z,5.24
2022-09-23T05:08:33.570Z,5.22
2022-09-23T05:09:33.566Z,5.22
2022-09-23T05:10:33.554Z,5.21
2022-09-23T05:11:33.528Z,5.20
2022-09-23T05:12:33.535Z,5.18
2022-09-23T05:13:33.678Z,5.17
2022-09-23T05:14:33.506Z,5.10
2022-09-23T05:15:33.492Z,5.10
2022-09-23T05:16:33.524Z,5.12
2022-09-23T05:17:33.471Z,5.17
2022-09-23T05:18:33.464Z,5.15
2022-09-23T05:19:33.456Z,5.17
2022-09-23T05:20:33.459Z,5.17
2022-09-23T05:21:33.436Z,5.15
2022-09-23T05:22:33.420Z,5.17
2022-09-23T05:23:33.406Z,5.18
2022-09-23T05:24:33.439Z,5.17
2022-09-23T05:25:38.103Z,5.17
2022-09-23T05:26:34.372Z,5.15
2022-09-23T05:27:33.361Z,5.12
2022-09-23T05:28:33.361Z,5.12
2022-09-23T05:29:33.358Z,5.07
2022-09-23T05:30:33.349Z,5.09
2022-09-23T05:31:33.366Z,5.09
2022-09-23T05:32:33.316Z,5.10
2022-09-23T05:33:33.302Z,5.13
2022-09-23T05:34:33.297Z,5.17
2022-09-23T05:35:33.280Z,5.13
2022-09-23T05:36:37.877Z,5.18
2022-09-23T05:37:34.259Z,5.17
2022-09-23T05:38:33.258Z,5.17
2022-09-23T05:39:33.249Z,5.10
2022-09-23T05:40:33.333Z,5.10
2022-09-23T05:41:33.231Z,5.12
2022-09-23T05:42:33.213Z,5.15
2022-09-23T05:43:33.201Z,5.22
2022-09-23T05:44:33.211Z,5.24
2022-09-23T05:45:33.171Z,5.25
2022-09-23T05:46:33.286Z,5.25
2022-09-23T05:47:33.157Z,5.27
2022-09-23T05:48:33.148Z,5.24
2022-09-23T05:49:55.173Z,5.25
2022-09-23T05:50:34.120Z,5.25
2022-09-23T05:51:33.117Z,5.27
2022-09-23T05:52:33.099Z,5.25
2022-09-23T05:53:33.089Z,5.27
2022-09-23T05:54:33.085Z,5.28
2022-09-23T05:55:33.070Z,5.31
2022-09-23T05:56:33.073Z,5.30
2022-09-23T05:57:33.053Z,5.33
2022-09-23T05:58:33.040Z,5.33
2022-09-23T05:59:33.026Z,5.36
2022-09-23T06:00:33.007Z,5.38
2022-09-23T06:01:33.055Z,5.38
2022-09-23T06:02:33.008Z,5.36
2022-09-23T06:03:32.981Z,5.35
2022-09-23T06:04:32.982Z,5.36
2022-09-23T06:05:32.981Z,5.36
2022-09-23T06:06:32.954Z,5.35
2022-09-23T06:07:32.935Z,5.35
2022-09-23T06:08:32.935Z,5.36
2022-09-23T06:09:36.366Z,5.40
2022-09-23T06:10:32.929Z,5.42
2022-09-23T06:11:32.904Z,5.48
2022-09-23T06:12:32.902Z,5.49
2022-09-23T06:13:32.882Z,5.54
2022-09-23T06:14:32.862Z,5.57
2022-09-23T06:15:33.105Z,5.60
2022-09-23T06:16:32.939Z,5.61
2022-09-23T06:17:32.836Z,5.63
2022-09-23T06:18:32.821Z,5.64
2022-09-23T06:19:32.818Z,5.65
2022-09-23T06:20:32.830Z,5.71
2022-09-23T06:21:32.790Z,5.74
2022-09-23T06:22:35.443Z,5.78
2022-09-23T06:23:32.803Z,5.79
2022-09-23T06:24:32.980Z,5.82
2022-09-23T06:25:32.756Z,5.85
2022-09-23T06:26:32.756Z,5.90
2022-09-23T06:27:32.721Z,5.93
2022-09-23T06:28:32.723Z,5.96
2022-09-23T06:29:32.715Z,5.97
2022-09-23T06:30:32.712Z,6.00
2022-09-23T06:31:32.766Z,6.03
2022-09-23T06:32:32.667Z,6.09
2022-09-23T06:33:36.996Z,6.14
2022-09-23T06:34:42.471Z,6.18
2022-09-23T06:35:33.638Z,6.22
2022-09-23T06:36:42.228Z,6.30
2022-09-23T06:37:33.626Z,6.37
2022-09-23T06:38:32.614Z,6.46
2022-09-23T06:39:32.660Z,6.54
2022-09-23T06:40:32.695Z,6.59
2022-09-23T06:41:32.585Z,6.67
2022-09-23T06:42:32.589Z,6.74
2022-09-23T06:43:32.554Z,6.84
2022-09-23T06:44:32.541Z,6.92
2022-09-23T06:45:32.532Z,6.97
2022-09-23T06:46:32.636Z,7.05
2022-09-23T06:47:32.510Z,7.12
2022-09-23T06:48:32.511Z,7.20
2022-09-23T06:49:32.500Z,7.28
2022-09-23T06:50:32.488Z,7.31
2022-09-23T06:51:32.479Z,7.39
2022-09-23T06:52:32.486Z,7.46
2022-09-23T06:53:32.466Z,7.52
2022-09-23T06:54:32.452Z,7.55
2022-09-23T06:55:32.453Z,7.67
2022-09-23T06:56:37.774Z,7.71
2022-09-23T06:57:33.433Z,7.83
2022-09-23T06:58:32.426Z,7.92
2022-09-23T06:59:32.393Z,8.00
2022-09-23T07:00:32.398Z,8.10
2022-09-23T07:01:32.438Z,8.12
2022-09-23T07:02:32.455Z,8.22
2022-09-23T07:03:32.348Z,8.29
2022-09-23T07:04:32.323Z,8.34
2022-09-23T07:05:32.322Z,8.38
2022-09-23T07:06:32.321Z,8.40
2022-09-23T07:07:32.313Z,8.43
2022-09-23T07:08:32.297Z,8.44
2022-09-23T07:09:32.301Z,8.48
2022-09-23T07:10:32.265Z,8.48
2022-09-23T07:11:32.262Z,8.55
2022-09-23T07:12:32.484Z,8.53
2022-09-23T07:13:32.243Z,8.56
2022-09-23T07:14:32.230Z,8.62
2022-09-23T07:15:32.270Z,8.65
2022-09-23T07:16:32.211Z,8.73
2022-09-23T07:17:32.717Z,8.74
2022-09-23T07:18:36.412Z,8.83
2022-09-23T07:19:32.321Z,8.86
2022-09-23T07:20:32.163Z,8.92
2022-09-23T07:21:32.157Z,8.95
2022-09-23T07:22:32.767Z,9.01
2022-09-23T07:23:32.140Z,9.02
2022-09-23T07:24:32.145Z,9.10
2022-09-23T07:25:32.101Z,9.14
2022-09-23T07:26:32.123Z,9.18
2022-09-23T07:27:32.104Z,9.23
2022-09-23T07:28:32.080Z,9.29
2022-09-23T07:29:42.561Z,9.35
2022-09-23T07:30:33.084Z,9.38
2022-09-23T07:31:38.577Z,9.46
2022-09-23T07:32:43.772Z,9.51
2022-09-23T07:33:33.662Z,9.54
2022-09-23T07:34:32.060Z,9.58
2022-09-23T07:35:32.011Z,9.65
2022-09-23T07:36:31.989Z,9.66
2022-09-23T07:37:31.979Z,9.72
2022-09-23T07:38:31.991Z,9.75
2022-09-23T07:39:31.969Z,9.83
2022-09-23T07:40:32.050Z,9.90
2022-09-23T07:41:31.954Z,9.94
2022-09-23T07:42:31.946Z,10.01
2022-09-23T07:43:31.916Z,10.08
2022-09-23T07:44:31.932Z,10.18
2022-09-23T07:45:31.899Z,10.29
2022-09-23T07:46:31.974Z,10.34
2022-09-23T07:47:31.901Z,10.40
2022-09-23T07:48:34.302Z,10.51
2022-09-23T07:49:31.848Z,10.55
2022-09-23T07:50:31.840Z,10.56
2022-09-23T07:51:35.737Z,10.59
2022-09-23T07:52:31.831Z,10.66
2022-09-23T07:53:31.828Z,10.70
2022-09-23T07:54:31.803Z,10.74
2022-09-23T07:55:31.795Z,10.78
2022-09-23T07:56:31.795Z,10.92
2022-09-23T07:57:31.762Z,11.00
2022-09-23T07:58:31.763Z,11.07
2022-09-23T07:59:31.743Z,11.15
2022-09-23T08:00:31.736Z,11.18
2022-09-23T08:01:31.804Z,11.21
2022-09-23T08:02:31.767Z,11.29
2022-09-23T08:03:31.702Z,11.33
2022-09-23T08:04:31.717Z,11.44
2022-09-23T08:05:31.699Z,11.51
2022-09-23T08:06:31.706Z,11.58
2022-09-23T08:07:31.662Z,11.69
2022-09-23T08:08:31.650Z,11.70
2022-09-23T08:09:31.630Z,11.80
2022-09-23T08:10:31.641Z,11.90
2022-09-23T08:11:31.618Z,11.99
2022-09-23T08:12:31.615Z,12.12
2022-09-23T08:13:31.625Z,12.17
2022-09-23T08:14:31.580Z,12.19
2022-09-23T08:15:31.608Z,12.27
2022-09-23T08:16:31.605Z,12.34
2022-09-23T08:17:31.573Z,12.45
2022-09-23T08:18:31.559Z,12.52
2022-09-23T08:19:31.611Z,12.62
2022-09-23T08:20:31.531Z,12.77
2022-09-23T08:21:32.118Z,12.92
2022-09-23T08:22:31.503Z,13.00
2022-09-23T08:23:31.485Z,13.10
2022-09-23T08:24:31.482Z,13.19
2022-09-23T08:25:34.286Z,13.28
2022-09-23T08:26:31.463Z,13.36
2022-09-23T08:27:31.467Z,13.41
2022-09-23T08:28:31.441Z,13.45
2022-09-23T08:29:31.431Z,13.55
2022-09-23T08:30:31.418Z,13.59
2022-09-23T08:31:31.394Z,13.69
2022-09-23T08:32:31.404Z,13.79
2022-09-23T08:33:31.376Z,13.92
2022-09-23T08:34:31.363Z,14.06
2022-09-23T08:35:31.379Z,14.21
2022-09-23T08:36:31.361Z,14.29
2022-09-23T08:37:31.340Z,14.42
2022-09-23T08:38:31.321Z,14.50
2022-09-23T08:39:31.317Z,14.58
2022-09-23T08:40:31.336Z,14.62
2022-09-23T08:41:31.297Z,14.68
2022-09-23T08:42:31.280Z,14.70
2022-09-23T08:43:31.267Z,14.77
2022-09-23T08:44:31.264Z,14.78
2022-09-23T08:45:31.239Z,14.88
2022-09-23T08:46:31.616Z,14.89
2022-09-23T08:47:31.453Z,14.99
2022-09-23T08:48:31.212Z,15.03
2022-09-23T08:49:31.209Z,15.16
2022-09-23T08:50:31.291Z,15.28
2022-09-23T08:51:31.201Z,15.39
2022-09-23T08:52:31.187Z,15.49
2022-09-23T08:53:31.168Z,15.57
2022-09-23T08:54:31.154Z,15.68
2022-09-23T08:55:31.135Z,15.76
2022-09-23T08:56:31.150Z,15.83
2022-09-23T08:57:31.124Z,15.86
2022-09-23T08:58:31.108Z,15.84
2022-09-23T08:59:31.120Z,15.92
2022-09-23T09:00:31.068Z,15.87
2022-09-23T09:01:31.396Z,15.86
2022-09-23T09:02:31.079Z,15.96
2022-09-23T09:03:31.054Z,16.07
2022-09-23T09:04:31.045Z,16.20
2022-09-23T09:05:31.033Z,16.23
2022-09-23T09:06:31.029Z,16.23
2022-09-23T09:07:38.519Z,16.28
2022-09-23T09:08:31.992Z,16.30
2022-09-23T09:09:31.007Z,16.21
2022-09-23T09:10:30.978Z,16.24
2022-09-23T09:11:30.979Z,16.27
2022-09-23T09:12:30.959Z,16.31
2022-09-23T09:13:30.960Z,16.35
2022-09-23T09:14:30.946Z,16.45
2022-09-23T09:15:30.969Z,16.52
2022-09-23T09:16:55.343Z,16.60
2022-09-23T09:17:35.035Z,16.73
2022-09-23T16:25:11.076Z,18.27
2022-09-23T16:26:09.423Z,18.26
2022-09-23T16:27:09.656Z,18.23
2022-09-23T16:28:09.380Z,18.20
2022-09-23T16:29:09.456Z,18.18
2022-09-23T16:30:09.373Z,18.18
2022-09-23T16:31:09.360Z,18.17
2022-09-23T16:32:09.380Z,18.12
2022-09-23T16:33:09.341Z,18.11
2022-09-23T16:34:09.326Z,18.08
2022-09-23T16:35:09.341Z,18.05
2022-09-23T16:36:09.302Z,18.02
2022-09-23T16:37:09.312Z,17.99
2022-09-23T16:38:09.262Z,17.95
2022-09-23T16:39:09.242Z,17.93
2022-09-23T16:40:09.343Z,17.92
2022-09-23T16:41:09.347Z,17.89
2022-09-23T16:42:09.252Z,17.82
2022-09-23T16:43:09.243Z,17.82
2022-09-23T16:44:09.216Z,17.79
2022-09-23T16:45:09.241Z,17.78
2022-09-23T16:46:09.298Z,17.75
2022-09-23T16:47:09.193Z,17.71
2022-09-23T16:48:09.162Z,17.71
2022-09-23T16:49:09.164Z,17.71
2022-09-23T16:50:09.138Z,17.70
2022-09-23T16:51:09.117Z,17.68
2022-09-23T16:52:09.113Z,17.64
2022-09-23T16:53:09.179Z,17.62
2022-09-23T16:54:09.131Z,17.62
2022-09-23T16:55:09.217Z,17.58
2022-09-23T16:56:09.173Z,17.56
2022-09-23T16:57:09.079Z,17.54
2022-09-23T16:58:09.046Z,17.52
2022-09-23T16:59:09.143Z,17.49
2022-09-23T17:00:09.032Z,17.46
2022-09-23T17:01:09.130Z,17.41
2022-09-23T17:02:09.055Z,17.41
2022-09-23T17:03:09.010Z,17.34
2022-09-23T17:04:09.031Z,17.33
2022-09-23T17:05:08.969Z,17.26
2022-09-23T17:06:08.974Z,17.21
2022-09-23T17:07:08.965Z,17.16
2022-09-23T17:08:08.936Z,17.12
2022-09-23T17:09:08.942Z,17.07
2022-09-23T17:10:08.919Z,17.04
2022-09-23T17:11:08.904Z,16.98
2022-09-23T17:12:08.896Z,16.96
2022-09-23T17:13:08.892Z,16.91
2022-09-23T17:14:08.913Z,16.86
2022-09-23T17:15:08.848Z,16.83
2022-09-23T17:16:08.904Z,16.82
2022-09-23T17:17:08.842Z,16.76
2022-09-23T17:18:08.837Z,16.76
2022-09-23T17:19:08.878Z,16.71
2022-09-23T17:20:08.796Z,16.70
2022-09-23T17:21:08.795Z,16.67
2022-09-23T17:22:08.776Z,16.66
2022-09-23T17:23:08.764Z,16.64
2022-09-23T17:24:08.774Z,16.60
2022-09-23T17:25:08.786Z,16.56
2022-09-23T17:26:08.726Z,16.53
2022-09-23T17:27:09.004Z,16.52
2022-09-23T17:28:08.712Z,16.49
2022-09-23T17:29:08.695Z,16.46
2022-09-23T17:30:08.709Z,16.42
2022-09-23T17:31:08.849Z,16.43
2022-09-23T17:32:08.710Z,16.43
2022-09-23T17:33:08.661Z,16.39
2022-09-23T17:34:08.704Z,16.39
2022-09-23T17:35:08.621Z,16.35
2022-09-23T17:36:08.627Z,16.33
2022-09-23T17:37:08.641Z,16.31
2022-09-23T17:38:08.972Z,16.27
2022-09-23T17:39:08.661Z,16.25
2022-09-23T17:40:08.658Z,16.24
2022-09-23T17:41:08.563Z,16.21
2022-09-23T17:42:08.589Z,16.20
2022-09-23T17:43:08.555Z,16.17
2022-09-23T17:44:08.547Z,16.12
2022-09-23T17:45:08.649Z,16.08
2022-09-23T17:46:08.633Z,16.07
2022-09-23T17:47:08.556Z,16.04
2022-09-23T17:48:08.502Z,16.01
2022-09-23T17:49:08.636Z,15.94
2022-09-23T17:50:08.470Z,15.93
2022-09-23T17:51:08.464Z,15.89
2022-09-23T17:52:08.460Z,15.84
2022-09-23T17:53:08.440Z,15.83
2022-09-23T17:54:08.448Z,15.80
2022-09-23T17:55:08.436Z,15.78
2022-09-23T17:56:08.430Z,15.78
2022-09-23T17:57:08.634Z,15.74
2022-09-23T17:58:08.438Z,15.71
2022-09-23T17:59:08.379Z,15.71
2022-09-23T18:00:08.424Z,15.68
2022-09-23T18:01:08.410Z,15.67
2022-09-23T18:02:10.548Z,15.65
2022-09-23T18:03:08.346Z,15.64
2022-09-23T18:04:08.345Z,15.62
2022-09-23T18:05:08.320Z,15.59
2022-09-23T18:06:08.305Z,15.57
2022-09-23T18:07:08.303Z,15.56
2022-09-23T18:08:08.283Z,15.53
2022-09-23T18:09:08.350Z,15.51
2022-09-23T18:10:08.266Z,15.50
2022-09-23T18:11:08.251Z,15.49
2022-09-23T18:12:08.253Z,15.44
2022-09-23T18:13:08.219Z,15.44
2022-09-23T18:14:08.225Z,15.41
2022-09-23T18:15:08.211Z,15.39
2022-09-23T18:16:08.387Z,15.36
2022-09-23T18:17:08.200Z,15.34
2022-09-23T18:18:08.172Z,15.34
2022-09-23T18:19:08.222Z,15.32
2022-09-23T18:20:08.147Z,15.32
2022-09-23T18:21:08.159Z,15.31
2022-09-23T18:22:08.125Z,15.29
2022-09-23T18:23:08.333Z,15.27
2022-09-23T18:24:31.412Z,15.27
2022-09-23T18:25:28.497Z,15.25
2022-09-23T18:26:09.097Z,15.23
2022-09-23T18:27:08.085Z,15.21
2022-09-23T18:28:08.058Z,15.19
2022-09-23T18:29:08.445Z,15.20
2022-09-23T18:30:08.052Z,15.17
2022-09-23T18:31:08.083Z,15.16
2022-09-23T18:32:11.080Z,15.14
2022-09-23T18:33:09.009Z,15.13
2022-09-23T18:34:08.317Z,15.10
2022-09-23T18:35:07.980Z,15.11
2022-09-23T18:36:07.973Z,15.11
2022-09-23T18:37:15.284Z,15.13
2022-09-23T18:38:08.932Z,15.13
2022-09-23T18:39:07.965Z,15.11
2022-09-23T18:40:12.523Z,15.10
2022-09-23T18:41:08.927Z,15.10
2022-09-23T18:42:07.919Z,15.10
2022-09-23T18:43:07.912Z,15.11
2022-09-23T18:44:07.921Z,15.10
2022-09-23T18:45:08.335Z,15.09
2022-09-23T18:46:07.938Z,15.07
2022-09-23T18:47:07.869Z,15.03
2022-09-23T18:48:07.874Z,15.01
2022-09-23T18:49:07.863Z,15.01
2022-09-23T18:50:07.818Z,14.96
2022-09-23T18:51:07.783Z,14.95
2022-09-23T18:52:07.776Z,14.92
2022-09-23T18:53:07.840Z,14.91
2022-09-23T18:54:07.830Z,14.89
2022-09-23T18:55:07.744Z,14.88
2022-09-23T18:56:07.733Z,14.86
2022-09-23T18:57:07.845Z,14.84
2022-09-23T18:58:07.744Z,14.84
2022-09-23T18:59:07.852Z,14.81
2022-09-23T19:00:07.796Z,14.80
2022-09-23T19:01:07.809Z,14.80
2022-09-23T19:02:07.893Z,14.80
2022-09-23T19:03:07.695Z,14.84
2022-09-23T19:04:07.736Z,14.84
2022-09-23T19:05:07.657Z,14.83
2022-09-23T19:06:07.667Z,14.83
2022-09-23T19:07:07.655Z,14.86
2022-09-23T19:08:07.635Z,14.83
2022-09-23T19:09:07.611Z,14.81
2022-09-23T19:10:07.616Z,14.81
2022-09-23T19:11:07.609Z,14.78
2022-09-23T19:12:07.570Z,14.77
2022-09-23T19:13:07.582Z,14.75
2022-09-23T19:16:23.084Z,14.70
2022-09-23T19:17:25.755Z,14.65
2022-09-23T19:22:23.901Z,14.57
2022-09-23T19:23:23.085Z,14.54
2022-09-23T19:24:26.524Z,14.54
2022-09-23T19:25:23.315Z,14.52
2022-09-23T19:26:24.992Z,14.51
2022-09-23T19:27:22.989Z,14.50
2022-09-23T19:28:23.676Z,14.47
2022-09-23T19:29:21.927Z,14.46
2022-09-23T19:30:22.345Z,14.45
2022-09-23T19:31:22.158Z,14.45
2022-09-23T19:32:25.450Z,14.40
2022-09-23T19:33:24.894Z,14.40
2022-09-23T19:34:23.502Z,14.39
2022-09-23T19:35:24.094Z,14.37
2022-09-23T19:36:24.114Z,14.35
2022-09-23T19:37:21.580Z,14.35
2022-09-23T19:38:21.510Z,14.33
2022-09-23T19:39:21.468Z,14.32
2022-09-23T19:40:21.551Z,14.32
2022-09-23T19:41:21.400Z,14.28
2022-09-23T19:42:21.379Z,14.28
2022-09-23T19:43:21.375Z,14.25
2022-09-23T19:44:21.534Z,14.27
2022-09-23T19:45:21.422Z,14.22
2022-09-23T19:46:21.619Z,14.24
2022-09-23T19:47:21.562Z,14.24
2022-09-23T19:48:21.296Z,14.24
2022-09-23T19:49:21.283Z,14.24
2022-09-23T19:50:21.389Z,14.24
2022-09-23T19:51:21.265Z,14.22
2022-09-23T19:52:21.235Z,14.21
2022-09-23T19:53:24.807Z,14.24
2022-09-23T19:54:22.228Z,14.22
2022-09-23T19:55:21.213Z,14.24
2022-09-23T19:56:21.175Z,14.20
2022-09-23T19:57:21.261Z,14.17
2022-09-23T19:58:21.166Z,14.17
2022-09-23T19:59:21.202Z,14.15
2022-09-23T20:00:21.323Z,14.12
2022-09-23T20:01:21.315Z,14.12
2022-09-23T20:02:21.284Z,14.09
2022-09-23T20:03:21.183Z,14.06
2022-09-23T20:04:21.296Z,14.04
2022-09-23T20:05:21.160Z,14.03
2022-09-23T20:06:21.533Z,14.00
2022-09-23T20:07:21.163Z,13.99
2022-09-23T20:08:21.153Z,13.95
2022-09-23T20:09:21.090Z,13.96
2022-09-23T20:10:21.095Z,13.97
2022-09-23T20:11:23.715Z,13.97
2022-09-23T20:12:22.019Z,13.96
2022-09-23T20:13:21.042Z,13.97
2022-09-23T20:14:21.104Z,13.96
2022-09-23T20:15:21.412Z,13.96
2022-09-23T20:16:21.136Z,13.92
2022-09-23T20:17:21.003Z,13.92
2022-09-23T20:18:21.726Z,13.91
2022-09-23T20:19:21.529Z,13.89
2022-09-23T20:20:21.131Z,13.88